Time;durP1;ratioP1;P1;durP2;ratioP2;P2;SDS_P1;SDS_P2;PMS_P1;PMS_P2;Temp;Humidity;BMP_temperature;BMP_pressure;BME280_temperature;BME280_humidity;BME280_pressure;Samples;Min_cycle;Max_cycle;Signal;HPM_P1;HPM_P2
2022/05/18 00:01:06;;;;;;;13.30;12.20;;;18.30;1.00;;;;;;5107322;28;20447;-57
2022/05/18 00:03:35;;;;;;;13.50;12.30;;;18.30;1.00;;;;;;5095921;28;20454;-56
2022/05/18 00:06:05;;;;;;;13.57;12.53;;;18.20;1.00;;;;;;5106866;28;20847;-56
2022/05/18 00:08:35;;;;;;;14.90;13.50;;;18.20;1.00;;;;;;5099674;28;20418;-56
2022/05/18 00:11:28;;;;;;;14.37;13.10;;;18.20;1.00;;;;;;5106993;28;20430;-57
2022/05/18 00:13:54;;;;;;;14.13;12.93;;;18.10;1.00;;;;;;5093002;28;20462;-57
2022/05/18 00:16:23;;;;;;;13.73;12.63;;;18.00;1.00;;;;;;5104917;28;20471;-57
2022/05/18 00:18:48;;;;;;;13.43;12.17;;;18.00;1.00;;;;;;5092894;28;20532;-56
2022/05/18 00:21:14;;;;;;;13.90;12.60;;;18.10;1.00;;;;;;5095549;28;20484;-58
2022/05/18 00:23:40;;;;;;;13.43;12.23;;;18.00;1.00;;;;;;5099716;28;20193;-56
2022/05/18 00:26:06;;;;;;;13.03;11.83;;;17.90;1.00;;;;;;5103215;28;21706;-57
2022/05/18 00:28:33;;;;;;;13.77;12.70;;;17.90;1.00;;;;;;5097088;28;20754;-58
2022/05/18 00:30:59;;;;;;;15.93;13.10;;;17.90;1.00;;;;;;5108734;28;20460;-57
2022/05/18 00:33:25;;;;;;;13.53;12.33;;;17.80;1.00;;;;;;5105116;28;20450;-58
2022/05/18 00:35:51;;;;;;;14.83;13.43;;;17.80;1.00;;;;;;5097833;28;20975;-57
2022/05/18 00:38:16;;;;;;;14.00;12.83;;;17.80;1.00;;;;;;5104303;28;20423;-56
2022/05/18 00:40:46;;;;;;;14.97;13.67;;;17.70;1.00;;;;;;5102855;28;20187;-57
2022/05/18 00:43:19;;;;;;;14.57;13.37;;;17.80;1.00;;;;;;5097721;28;20221;-57
2022/05/18 00:45:45;;;;;;;15.30;13.83;;;17.70;1.00;;;;;;5103946;28;20471;-57
2022/05/18 00:48:11;;;;;;;14.73;13.07;;;17.60;1.00;;;;;;5107285;28;22831;-56
2022/05/18 00:50:39;;;;;;;13.80;12.60;;;17.50;1.00;;;;;;5094483;28;20189;-57
2022/05/18 00:53:10;;;;;;;15.27;13.87;;;17.60;1.00;;;;;;5102247;28;20198;-57
2022/05/18 00:55:40;;;;;;;13.80;12.63;;;17.60;1.00;;;;;;5096814;28;20536;-57
2022/05/18 00:58:35;;;;;;;13.43;11.97;;;17.50;1.00;;;;;;5107935;28;20451;-58
2022/05/18 01:01:01;;;;;;;14.73;13.50;;;17.50;1.00;;;;;;5098271;28;20449;-58
2022/05/18 01:03:39;;;;;;;14.83;13.47;;;17.40;1.00;;;;;;5104209;28;20415;-57
2022/05/18 01:06:15;;;;;;;14.20;12.80;;;17.40;1.00;;;;;;5104040;28;20437;-57
2022/05/18 01:09:01;;;;;;;15.23;14.03;;;17.50;1.00;;;;;;5094406;28;20444;-55
2022/05/18 01:11:27;;;;;;;16.13;14.73;;;17.30;1.00;;;;;;5097826;28;20447;-57
2022/05/18 01:13:53;;;;;;;14.77;13.43;;;17.20;1.00;;;;;;5102666;28;20539;-57
2022/05/18 01:16:20;;;;;;;16.03;14.50;;;17.10;1.00;;;;;;5098409;28;20210;-56
2022/05/18 01:18:48;;;;;;;15.60;14.10;;;17.10;1.00;;;;;;5107671;28;20589;-57
2022/05/18 01:21:13;;;;;;;14.33;12.77;;;17.10;1.00;;;;;;5096565;28;20431;-56
2022/05/18 01:23:59;;;;;;;15.07;13.73;;;17.10;1.00;;;;;;5092350;28;20491;-60
2022/05/18 01:26:45;;;;;;;15.10;13.70;;;17.00;1.00;;;;;;5091072;28;20194;-58
2022/05/18 01:29:12;;;;;;;16.37;14.67;;;17.00;1.00;;;;;;5098903;28;20536;-57
2022/05/18 01:31:48;;;;;;;14.27;13.17;;;16.90;1.00;;;;;;5095143;28;20451;-57
2022/05/18 01:34:16;;;;;;;16.20;14.90;;;17.00;1.00;;;;;;5100449;28;20478;-58
2022/05/18 01:36:42;;;;;;;15.53;14.20;;;16.90;1.00;;;;;;5093970;28;20505;-57
2022/05/18 01:39:16;;;;;;;15.47;14.23;;;16.90;1.00;;;;;;5101960;28;20816;-57
2022/05/18 01:42:00;;;;;;;16.23;14.93;;;16.80;1.00;;;;;;5091169;28;20713;-58
2022/05/18 01:44:26;;;;;;;15.07;13.67;;;16.80;1.00;;;;;;5103501;28;20467;-57
2022/05/18 01:46:52;;;;;;;16.17;14.87;;;16.80;1.00;;;;;;5098353;28;20779;-56
2022/05/18 01:49:18;;;;;;;16.13;14.53;;;16.80;1.00;;;;;;5110894;28;20194;-57
2022/05/18 01:51:51;;;;;;;15.50;14.03;;;16.80;1.00;;;;;;5109445;28;20446;-57
2022/05/18 01:54:18;;;;;;;15.80;14.37;;;16.70;1.00;;;;;;5109796;28;20451;-58
2022/05/18 01:56:44;;;;;;;16.93;15.17;;;16.70;1.00;;;;;;5110529;28;20443;-56
2022/05/18 01:59:09;;;;;;;15.73;14.30;;;16.70;1.00;;;;;;5100598;28;20449;-58
2022/05/18 02:01:35;;;;;;;16.20;14.80;;;16.90;1.00;;;;;;5091268;28;20194;-57
2022/05/18 02:04:01;;;;;;;16.13;14.73;;;16.90;1.00;;;;;;5100807;28;20190;-57
2022/05/18 02:06:26;;;;;;;15.73;14.43;;;16.90;1.00;;;;;;5107907;28;20217;-57
2022/05/18 02:08:52;;;;;;;16.00;14.60;;;16.90;1.00;;;;;;5098983;28;20217;-55
2022/05/18 02:11:20;;;;;;;15.67;14.37;;;16.90;1.00;;;;;;5101870;28;20277;-56
2022/05/18 02:13:46;;;;;;;16.10;14.50;;;16.80;1.00;;;;;;5095807;28;20190;-56
2022/05/18 02:16:12;;;;;;;15.30;13.90;;;16.80;1.00;;;;;;5107841;28;20483;-57
2022/05/18 02:18:38;;;;;;;15.57;14.20;;;16.70;1.00;;;;;;5103167;28;20527;-57
2022/05/18 02:21:09;;;;;;;15.83;14.50;;;16.70;1.00;;;;;;5096348;28;20953;-57
2022/05/18 02:23:39;;;;;;;14.97;13.80;;;16.80;1.00;;;;;;5111275;28;20535;-56
2022/05/18 02:26:10;;;;;;;15.40;13.90;;;16.80;1.00;;;;;;5110849;28;20936;-57
2022/05/18 02:28:36;;;;;;;16.37;14.87;;;16.80;1.00;;;;;;5105133;28;20480;-58
2022/05/18 02:31:01;;;;;;;15.43;14.00;;;16.80;1.00;;;;;;5101850;28;21003;-57
2022/05/18 02:33:27;;;;;;;16.20;14.60;;;16.90;1.00;;;;;;5106325;28;21225;-58
2022/05/18 02:35:52;;;;;;;16.27;14.77;;;16.80;1.00;;;;;;5108488;28;20510;-58
2022/05/18 02:38:18;;;;;;;17.23;15.43;;;16.80;1.00;;;;;;5107688;28;20210;-57
2022/05/18 02:40:44;;;;;;;16.33;14.83;;;16.70;1.00;;;;;;5109599;28;20182;-57
2022/05/18 02:43:10;;;;;;;17.10;15.67;;;16.60;1.00;;;;;;5111088;28;20269;-57
2022/05/18 02:45:36;;;;;;;17.43;15.67;;;16.60;1.00;;;;;;5108586;28;20233;-56
2022/05/18 02:48:02;;;;;;;16.20;14.83;;;16.50;1.00;;;;;;5110409;28;20444;-58
2022/05/18 02:50:28;;;;;;;17.00;15.50;;;16.40;1.00;;;;;;5105127;28;20190;-56
2022/05/18 02:52:53;;;;;;;16.63;15.03;;;16.40;1.00;;;;;;5111548;28;20186;-57
2022/05/18 02:58:03;;;;;;;16.33;14.83;;;16.30;1.00;;;;;;5109261;28;20256;-56
2022/05/18 03:00:28;;;;;;;15.07;13.67;;;16.30;1.00;;;;;;5106626;28;21290;-57
2022/05/18 03:02:54;;;;;;;16.90;15.20;;;16.30;1.00;;;;;;5103965;28;20198;-57
2022/05/18 03:05:20;;;;;;;16.30;14.60;;;16.30;1.00;;;;;;5104780;28;20231;-56
2022/05/18 03:07:46;;;;;;;15.83;14.23;;;16.20;1.00;;;;;;5098127;28;21297;-57
2022/05/18 03:10:15;;;;;;;16.40;14.80;;;16.20;1.00;;;;;;5105326;28;20222;-56
2022/05/18 03:12:42;;;;;;;16.67;13.37;;;16.20;1.00;;;;;;5107097;28;20194;-56
2022/05/18 03:15:08;;;;;;;15.57;14.20;;;16.20;1.00;;;;;;5097779;28;20471;-57
2022/05/18 03:17:34;;;;;;;19.07;15.37;;;16.20;1.00;;;;;;5094556;28;20544;-57
2022/05/18 03:19:59;;;;;;;15.93;14.50;;;16.10;1.00;;;;;;5098766;28;20468;-55
2022/05/18 03:25:09;;;;;;;15.70;14.27;;;16.10;1.00;;;;;;5097601;28;20221;-57
2022/05/18 03:27:42;;;;;;;16.47;15.00;;;16.00;1.00;;;;;;5105127;28;20451;-57
2022/05/18 03:30:10;;;;;;;15.43;14.13;;;16.00;1.00;;;;;;5099134;28;20243;-57
2022/05/18 03:32:35;;;;;;;16.17;14.57;;;16.00;1.00;;;;;;5102050;28;20656;-57
2022/05/18 03:35:01;;;;;;;16.00;14.40;;;16.00;1.00;;;;;;5098837;28;20555;-56
2022/05/18 03:37:27;;;;;;;16.40;14.87;;;16.00;1.00;;;;;;5098565;28;20827;-57
2022/05/18 03:39:52;;;;;;;15.00;13.70;;;15.90;1.00;;;;;;5108323;28;20269;-58
2022/05/18 03:42:18;;;;;;;14.80;13.60;;;15.90;1.00;;;;;;5089611;28;20655;-57
2022/05/18 03:44:43;;;;;;;15.33;13.90;;;15.90;1.00;;;;;;5086009;28;20256;-57
2022/05/18 03:47:09;;;;;;;15.40;14.10;;;15.80;1.00;;;;;;5086630;28;20212;-56
2022/05/18 03:49:35;;;;;;;16.00;14.43;;;15.80;1.00;;;;;;5086598;28;20190;-58
2022/05/18 03:52:00;;;;;;;14.90;13.60;;;15.80;1.00;;;;;;5102811;28;20451;-57
2022/05/18 03:54:26;;;;;;;15.20;13.80;;;15.90;1.00;;;;;;5085552;28;20465;-57
2022/05/18 03:56:52;;;;;;;16.53;15.03;;;15.90;1.00;;;;;;5109396;28;20201;-57
2022/05/18 03:59:18;;;;;;;17.20;15.70;;;15.80;1.00;;;;;;5100267;28;20195;-57
2022/05/18 04:01:43;;;;;;;15.90;14.40;;;15.90;1.00;;;;;;5097209;28;20181;-55
2022/05/18 04:04:09;;;;;;;16.70;15.00;;;15.80;1.00;;;;;;5107912;28;20441;-57
2022/05/18 04:06:35;;;;;;;16.10;14.73;;;15.80;1.00;;;;;;5100281;28;20236;-57
2022/05/18 04:09:00;;;;;;;15.40;13.90;;;15.90;1.00;;;;;;5100119;28;20198;-58
2022/05/18 04:11:26;;;;;;;16.03;14.60;;;16.00;1.00;;;;;;5102144;28;20186;-57
2022/05/18 04:13:52;;;;;;;15.17;13.87;;;16.10;1.00;;;;;;5101718;28;20183;-57
2022/05/18 04:16:18;;;;;;;16.40;14.97;;;16.10;1.00;;;;;;5106586;28;20717;-58
2022/05/18 04:18:43;;;;;;;14.77;13.03;;;16.10;1.00;;;;;;5108160;28;20456;-56
2022/05/18 04:21:09;;;;;;;14.90;13.70;;;16.20;1.00;;;;;;5098522;28;20219;-64
2022/05/18 04:23:39;;;;;;;14.63;13.37;;;16.20;1.00;;;;;;5093784;28;20201;-63
2022/05/18 04:26:08;;;;;;;15.20;13.90;;;16.20;1.00;;;;;;5105554;28;20173;-62
2022/05/18 04:28:35;;;;;;;15.60;14.00;;;16.20;1.00;;;;;;5106159;28;20849;-62
2022/05/18 04:31:01;;;;;;;14.07;12.70;;;16.30;1.00;;;;;;5099884;28;20475;-62
2022/05/18 04:33:27;;;;;;;15.20;13.73;;;16.20;1.00;;;;;;5103204;28;20473;-63
2022/05/18 04:35:52;;;;;;;14.43;13.07;;;16.30;1.00;;;;;;5080125;28;20467;-63
2022/05/18 04:38:20;;;;;;;14.73;12.47;;;16.30;1.00;;;;;;5107528;28;20451;-62
2022/05/18 04:40:46;;;;;;;13.07;11.90;;;16.40;1.00;;;;;;5109248;28;20230;-63
2022/05/18 04:43:12;;;;;;;13.47;12.17;;;16.50;1.00;;;;;;5096570;28;20448;-63
2022/05/18 04:45:44;;;;;;;13.70;12.60;;;16.60;1.00;;;;;;5096464;28;20479;-63
2022/05/18 04:48:15;;;;;;;17.73;13.20;;;16.60;1.00;;;;;;5106462;28;20468;-57
2022/05/18 04:50:41;;;;;;;12.97;11.80;;;16.70;1.00;;;;;;5097354;28;20520;-58
2022/05/18 04:53:06;;;;;;;14.93;13.40;;;16.60;1.00;;;;;;5105234;28;20977;-57
2022/05/18 04:55:32;;;;;;;13.40;12.17;;;16.90;1.00;;;;;;5082426;28;20225;-58
2022/05/18 04:58:02;;;;;;;14.00;12.60;;;16.80;1.00;;;;;;5108749;28;20181;-59
2022/05/18 05:00:27;;;;;;;14.23;12.77;;;17.10;1.00;;;;;;5098605;28;20533;-57
2022/05/18 05:02:56;;;;;;;14.20;12.77;;;17.10;1.00;;;;;;5096662;28;20443;-59
2022/05/18 05:05:22;;;;;;;13.80;12.40;;;17.10;1.00;;;;;;5095546;28;20178;-58
2022/05/18 05:07:48;;;;;;;14.07;12.70;;;17.30;1.00;;;;;;5105253;28;20451;-59
2022/05/18 05:10:14;;;;;;;12.80;11.70;;;17.40;1.00;;;;;;5108607;28;20444;-58
2022/05/18 05:12:39;;;;;;;13.20;11.83;;;17.50;1.00;;;;;;5104187;28;20636;-58
2022/05/18 05:15:05;;;;;;;12.23;11.13;;;17.50;1.00;;;;;;5098602;28;20212;-58
2022/05/18 05:17:31;;;;;;;12.03;10.87;;;17.40;1.00;;;;;;5092601;28;20178;-58
2022/05/18 05:19:59;;;;;;;12.40;11.20;;;17.50;1.00;;;;;;5105062;28;20494;-57
2022/05/18 05:22:24;;;;;;;12.10;11.03;;;17.50;1.00;;;;;;5109548;28;20182;-58
2022/05/18 05:24:50;;;;;;;13.67;11.30;;;17.50;1.00;;;;;;5112530;28;20538;-58
2022/05/18 05:27:15;;;;;;;12.90;11.60;;;17.60;1.00;;;;;;5100570;28;20432;-59
2022/05/18 05:29:41;;;;;;;12.47;11.00;;;17.70;1.00;;;;;;5096520;28;20260;-57
2022/05/18 05:32:08;;;;;;;11.03;10.03;;;17.80;1.00;;;;;;5100072;28;20189;-57
2022/05/18 05:34:34;;;;;;;11.57;10.17;;;18.00;1.00;;;;;;5105374;28;20214;-58
2022/05/18 05:36:59;;;;;;;11.00;10.00;;;18.00;1.00;;;;;;5108883;28;20500;-57
2022/05/18 05:39:25;;;;;;;10.80;9.70;;;18.10;1.00;;;;;;5108386;28;20420;-57
2022/05/18 05:41:50;;;;;;;10.27;9.30;;;18.10;1.00;;;;;;5110903;28;20274;-58
2022/05/18 05:44:16;;;;;;;10.70;9.80;;;18.00;1.00;;;;;;5112015;28;20239;-58
2022/05/18 05:46:42;;;;;;;11.50;10.53;;;17.90;1.00;;;;;;5100331;28;20884;-58
2022/05/18 05:49:10;;;;;;;11.90;9.90;;;18.30;1.00;;;;;;5078244;28;20794;-58
2022/05/18 05:51:35;;;;;;;11.63;10.43;;;18.40;1.00;;;;;;5097909;28;20202;-58
2022/05/18 05:54:01;;;;;;;10.60;9.70;;;18.40;1.00;;;;;;5111379;28;20443;-58
2022/05/18 05:56:26;;;;;;;11.67;9.70;;;18.50;1.00;;;;;;5111538;28;20235;-59
2022/05/18 05:58:52;;;;;;;11.13;9.67;;;18.70;1.00;;;;;;5112663;28;20266;-59
2022/05/18 06:01:18;;;;;;;10.73;9.63;;;18.90;1.00;;;;;;5108956;28;20190;-57
2022/05/18 06:03:44;;;;;;;9.47;8.67;;;18.90;1.00;;;;;;5108991;28;20181;-58
2022/05/18 06:06:10;;;;;;;10.70;9.63;;;18.90;1.00;;;;;;5100106;28;20444;-59
2022/05/18 06:08:37;;;;;;;10.20;9.30;;;19.00;1.00;;;;;;5111324;28;20190;-57
2022/05/18 06:11:06;;;;;;;10.43;8.77;;;19.10;1.00;;;;;;5098239;28;20819;-57
2022/05/18 06:13:32;;;;;;;9.30;8.40;;;19.00;1.00;;;;;;5102167;28;20451;-58
2022/05/18 06:15:58;;;;;;;9.87;8.77;;;19.20;1.00;;;;;;5103055;28;20476;-59
2022/05/18 06:18:25;;;;;;;10.90;9.20;;;19.20;1.00;;;;;;5112573;28;20489;-57
2022/05/18 06:20:51;;;;;;;11.90;9.00;;;19.30;1.00;;;;;;5109425;28;20458;-58
2022/05/18 06:23:17;;;;;;;10.00;9.00;;;19.40;1.00;;;;;;5098230;28;20921;-60
2022/05/18 06:25:44;;;;;;;9.53;8.63;;;19.40;1.00;;;;;;5100331;28;20455;-57
2022/05/18 06:28:09;;;;;;;8.70;7.80;;;19.60;1.00;;;;;;5108529;28;20436;-59
2022/05/18 06:30:36;;;;;;;9.23;8.20;;;19.80;1.00;;;;;;5108869;28;20455;-57
2022/05/18 06:33:02;;;;;;;8.97;8.07;;;19.80;1.00;;;;;;5099493;28;20624;-58
2022/05/18 06:35:27;;;;;;;8.17;7.47;;;19.80;1.00;;;;;;5097384;28;20466;-58
2022/05/18 06:37:53;;;;;;;8.60;7.70;;;19.80;1.00;;;;;;5109197;28;20801;-57
2022/05/18 06:40:18;;;;;;;8.80;7.90;;;19.80;1.00;;;;;;5111672;28;20781;-59
2022/05/18 06:42:45;;;;;;;7.60;7.10;;;20.00;1.00;;;;;;5109788;28;20635;-58
2022/05/18 06:45:13;;;;;;;10.63;8.20;;;20.20;1.00;;;;;;5111349;28;20271;-59
2022/05/18 06:47:39;;;;;;;8.10;7.30;;;20.20;1.00;;;;;;5105992;28;20452;-59
2022/05/18 06:50:07;;;;;;;10.07;7.67;;;20.40;1.00;;;;;;5098379;28;20538;-59
2022/05/18 06:52:33;;;;;;;7.93;7.23;;;20.50;1.00;;;;;;5094481;28;20505;-59
2022/05/18 06:54:58;;;;;;;8.30;7.50;;;20.50;1.00;;;;;;5104082;28;20459;-59
2022/05/18 06:57:24;;;;;;;8.53;7.50;;;20.70;1.00;;;;;;5109381;28;20619;-58
2022/05/18 06:59:50;;;;;;;7.73;6.87;;;20.80;1.00;;;;;;5083772;28;20197;-58
2022/05/18 07:02:15;;;;;;;8.30;7.50;;;20.70;1.00;;;;;;5106504;28;20436;-58
2022/05/18 07:04:41;;;;;;;9.20;8.30;;;22.70;1.00;;;;;;5094230;28;20189;-58
2022/05/18 07:07:06;;;;;;;8.90;7.40;;;21.00;1.00;;;;;;5099714;28;20224;-57
2022/05/18 07:09:32;;;;;;;8.53;7.40;;;21.30;1.00;;;;;;5107319;28;20216;-58
2022/05/18 07:11:58;;;;;;;7.73;7.13;;;21.30;1.00;;;;;;5096068;28;20190;-59
2022/05/18 07:14:27;;;;;;;8.10;7.23;;;21.40;1.00;;;;;;5100804;28;20182;-58
2022/05/18 07:16:54;;;;;;;8.40;7.33;;;21.50;1.00;;;;;;5095258;28;20476;-58
2022/05/18 07:19:20;;;;;;;8.63;7.73;;;21.70;1.00;;;;;;5093912;28;20437;-58
2022/05/18 07:21:47;;;;;;;8.63;7.80;;;22.00;1.00;;;;;;5105826;28;20443;-58
2022/05/18 07:24:13;;;;;;;8.50;7.70;;;21.80;1.00;;;;;;5097170;28;20190;-59
2022/05/18 07:26:41;;;;;;;8.70;7.90;;;21.80;1.00;;;;;;5098113;28;20547;-58
2022/05/18 07:29:08;;;;;;;10.30;7.10;;;22.90;1.00;;;;;;5102982;28;20440;-58
2022/05/18 07:34:21;;;;;;;9.30;8.13;;;21.90;1.00;;;;;;5095053;28;20489;-59
2022/05/18 07:36:48;;;;;;;9.07;8.33;;;21.80;1.00;;;;;;5108566;28;20482;-59
2022/05/18 07:39:14;;;;;;;8.50;7.40;;;21.80;1.00;;;;;;5111077;28;20443;-59
2022/05/18 07:41:40;;;;;;;8.87;8.10;;;22.00;1.00;;;;;;5106669;28;20436;-59
2022/05/18 07:44:05;;;;;;;10.70;7.87;;;22.20;1.00;;;;;;5091007;28;20572;-59
2022/05/18 07:46:32;;;;;;;8.57;7.77;;;22.40;1.00;;;;;;5106828;28;20483;-58
2022/05/18 07:48:58;;;;;;;9.67;8.80;;;22.50;1.00;;;;;;5084194;28;20198;-59
2022/05/18 07:51:24;;;;;;;8.00;7.30;;;22.60;1.00;;;;;;5091688;28;20531;-58
2022/05/18 07:53:49;;;;;;;9.40;8.50;;;22.60;1.00;;;;;;5110656;28;20182;-59
2022/05/18 07:56:15;;;;;;;8.90;8.17;;;22.70;1.00;;;;;;5109981;28;20217;-58
2022/05/18 07:58:41;;;;;;;9.03;8.27;;;22.70;1.00;;;;;;5105644;28;20195;-57
2022/05/18 08:01:08;;;;;;;9.03;8.13;;;22.70;1.00;;;;;;5111014;28;20174;-58
2022/05/18 08:03:34;;;;;;;8.50;7.60;;;22.80;1.00;;;;;;5110964;28;20239;-58
2022/05/18 08:06:01;;;;;;;8.60;7.67;;;22.80;1.00;;;;;;5098052;28;20438;-59
2022/05/18 08:08:26;;;;;;;8.67;7.70;;;23.00;1.00;;;;;;5090927;28;20516;-59
2022/05/18 08:16:41;;;;;;;10.00;9.10;;;23.40;1.00;;;;;;5027594;28;20535;-58
2022/05/18 08:19:10;;;;;;;12.23;8.53;;;23.30;1.00;;;;;;5026102;28;21090;-58
2022/05/18 08:21:37;;;;;;;8.10;7.37;;;23.40;1.00;;;;;;5047942;28;20472;-57
2022/05/18 08:24:05;;;;;;;9.63;8.60;;;23.40;1.00;;;;;;5090422;28;20607;-59
2022/05/18 08:26:31;;;;;;;12.00;7.90;;;23.30;1.00;;;;;;5090476;28;20448;-58
2022/05/18 08:28:57;;;;;;;9.00;8.20;;;23.40;1.00;;;;;;5092730;28;20432;-58
2022/05/18 08:31:23;;;;;;;8.20;7.33;;;23.40;1.00;;;;;;5110930;28;20463;-57
2022/05/18 08:33:49;;;;;;;8.20;7.40;;;23.50;1.00;;;;;;5110602;28;20828;-58
2022/05/18 08:36:18;;;;;;;6.93;6.30;;;23.70;1.00;;;;;;5110913;28;20285;-59
2022/05/18 08:38:44;;;;;;;8.70;7.80;;;23.80;1.00;;;;;;5093755;28;20416;-57
2022/05/18 08:41:15;;;;;;;8.53;7.73;;;23.90;1.00;;;;;;5110457;28;20880;-58
2022/05/18 08:43:44;;;;;;;7.70;7.00;;;24.10;1.00;;;;;;5109215;28;20443;-58
2022/05/18 08:46:21;;;;;;;8.40;7.67;;;24.10;1.00;;;;;;5069867;28;20457;-58
2022/05/18 08:48:57;;;;;;;8.40;7.37;;;24.30;1.00;;;;;;5063209;28;20434;-58
2022/05/18 08:51:43;;;;;;;9.00;7.10;;;24.30;1.00;;;;;;5058164;28;20578;-59
2022/05/18 08:54:31;;;;;;;7.80;7.00;;;24.20;1.00;;;;;;5065896;28;20889;-59
2022/05/18 08:56:58;;;;;;;7.03;6.33;;;24.20;1.00;;;;;;5071045;28;20480;-58
2022/05/18 08:59:27;;;;;;;9.70;7.13;;;24.00;1.00;;;;;;5074390;28;20926;-59
2022/05/18 09:01:58;;;;;;;8.47;7.30;;;24.10;1.00;;;;;;5074202;28;20438;-58
2022/05/18 09:04:30;;;;;;;7.63;6.93;;;24.30;1.00;;;;;;5074123;28;20543;-57
2022/05/18 09:07:05;;;;;;;8.40;7.00;;;24.30;1.00;;;;;;5059058;28;20409;-59
2022/05/18 09:12:26;;;;;;;7.00;6.30;;;24.60;1.00;;;;;;5053815;28;20437;-58
2022/05/18 09:14:52;;;;;;;7.17;6.23;;;24.90;1.00;;;;;;5058810;28;20808;-58
2022/05/18 09:17:47;;;;;;;6.70;6.10;;;25.10;1.00;;;;;;5073805;28;20176;-59
2022/05/18 09:20:24;;;;;;;6.00;5.50;;;25.30;1.00;;;;;;5073896;28;20429;-59
2022/05/18 09:23:21;;;;;;;8.00;6.70;;;25.30;1.00;;;;;;5073034;28;20936;-59
2022/05/18 09:26:05;;;;;;;6.83;6.23;;;25.40;1.00;;;;;;5071459;28;20467;-60
2022/05/18 09:28:49;;;;;;;7.23;6.63;;;25.40;1.00;;;;;;5073238;28;20433;-58
2022/05/18 09:31:30;;;;;;;7.43;5.90;;;25.30;1.00;;;;;;5072990;28;20438;-59
2022/05/18 09:34:28;;;;;;;7.57;6.43;;;25.30;1.00;;;;;;5073532;28;20408;-57
2022/05/18 09:37:16;;;;;;;7.20;5.93;;;25.20;1.00;;;;;;5073359;28;20668;-58
2022/05/18 09:40:08;;;;;;;6.10;5.53;;;25.30;1.00;;;;;;5073292;28;20435;-58
2022/05/18 09:42:39;;;;;;;6.63;6.10;;;25.10;1.00;;;;;;5070153;28;20424;-59
2022/05/18 09:45:04;;;;;;;6.70;5.87;;;25.40;1.00;;;;;;5075612;28;21213;-59
2022/05/18 09:47:37;;;;;;;7.37;5.70;;;25.40;1.00;;;;;;5093591;28;20516;-57
2022/05/18 09:50:06;;;;;;;8.17;5.63;;;25.40;1.00;;;;;;5096661;28;20239;-59
2022/05/18 09:52:34;;;;;;;6.70;6.00;;;25.30;1.00;;;;;;5093136;28;20436;-59
2022/05/18 09:55:01;;;;;;;8.33;5.90;;;25.40;1.00;;;;;;5092858;28;20456;-60
2022/05/18 09:57:33;;;;;;;7.53;6.70;;;25.40;1.00;;;;;;5100499;28;20875;-58
2022/05/18 10:00:03;;;;;;;8.40;6.87;;;25.70;1.00;;;;;;5110564;28;20433;-59
2022/05/18 10:08:28;;;;;;;5.37;4.80;;;25.60;1.00;;;;;;5113812;28;21040;-59
2022/05/18 10:11:12;;;;;;;6.77;5.50;;;25.60;1.00;;;;;;5113321;28;20421;-59
2022/05/18 10:13:43;;;;;;;5.77;5.23;;;25.70;1.00;;;;;;5113358;28;20431;-58
2022/05/18 10:16:19;;;;;;;8.90;5.47;;;25.90;1.00;;;;;;5113289;28;20455;-59
2022/05/18 10:18:52;;;;;;;7.63;6.83;;;25.80;1.00;;;;;;5113203;28;21076;-58
2022/05/18 10:21:25;;;;;;;6.47;5.97;;;25.80;1.00;;;;;;5112077;28;20488;-59
2022/05/18 10:24:01;;;;;;;6.30;5.70;;;25.80;1.00;;;;;;5104170;28;20900;-59
2022/05/18 10:26:35;;;;;;;6.80;6.20;;;25.80;1.00;;;;;;5113279;28;20406;-58
2022/05/18 10:29:04;;;;;;;7.03;6.43;;;25.80;1.00;;;;;;5110194;28;20433;-58
2022/05/18 10:31:33;;;;;;;7.43;6.73;;;25.80;1.00;;;;;;5092642;28;20440;-57
2022/05/18 10:34:44;;;;;;;9.00;5.83;;;25.70;1.00;;;;;;5092114;28;20609;-59
2022/05/18 10:37:12;;;;;;;12.80;6.93;;;26.00;1.00;;;;;;5008466;28;20828;-57
2022/05/18 10:39:46;;;;;;;7.00;6.27;;;25.90;1.00;;;;;;5008457;28;20600;-61
2022/05/18 10:42:29;;;;;;;9.80;6.40;;;25.90;1.00;;;;;;5069491;28;20495;-59
2022/05/18 10:44:59;;;;;;;7.00;6.30;;;25.90;1.00;;;;;;5112796;28;20613;-59
2022/05/18 10:47:35;;;;;;;7.17;6.47;;;25.80;1.00;;;;;;5112992;28;20410;-58
2022/05/18 10:50:25;;;;;;;7.63;6.73;;;;;;;;;;5094978;28;20428;-58
2022/05/18 10:53:17;;;;;;;9.67;6.83;;;26.10;1.00;;;;;;5109973;28;20448;-60
2022/05/18 10:56:09;;;;;;;8.03;6.80;;;26.00;1.00;;;;;;5098963;28;20478;-59
2022/05/18 10:59:11;;;;;;;7.40;6.73;;;26.10;1.00;;;;;;5091651;28;20427;-58
2022/05/18 11:01:46;;;;;;;7.47;6.77;;;26.30;1.00;;;;;;5091977;28;20786;-58
2022/05/18 11:04:50;;;;;;;7.10;6.50;;;26.40;1.00;;;;;;5091837;28;20519;-60
2022/05/18 11:07:18;;;;;;;7.30;6.70;;;26.60;1.00;;;;;;5008860;28;20444;-59
2022/05/18 11:09:44;;;;;;;8.57;7.87;;;26.60;1.00;;;;;;5094697;28;20435;-60
2022/05/18 11:12:24;;;;;;;8.10;7.03;;;26.70;1.00;;;;;;5112143;28;20427;-57
2022/05/18 11:15:08;;;;;;;8.57;7.77;;;26.70;1.00;;;;;;5111914;28;20439;-59
2022/05/18 11:17:51;;;;;;;8.83;8.00;;;26.40;1.00;;;;;;5112108;28;20917;-58
2022/05/18 11:20:37;;;;;;;11.20;8.57;;;26.50;1.00;;;;;;5111698;28;20437;-58
2022/05/18 11:23:29;;;;;;;9.20;8.20;;;26.40;1.00;;;;;;5112145;28;20526;-58
2022/05/18 11:26:02;;;;;;;8.70;6.83;;;26.30;1.00;;;;;;5097385;28;20490;-58
2022/05/18 11:28:44;;;;;;;8.53;7.37;;;26.50;1.00;;;;;;5110508;28;20911;-59
2022/05/18 11:31:42;;;;;;;7.97;7.17;;;26.60;1.00;;;;;;5112060;28;20439;-60
2022/05/18 11:34:28;;;;;;;8.03;7.17;;;26.40;1.00;;;;;;5055361;28;20501;-58
2022/05/18 11:37:11;;;;;;;8.13;7.53;;;26.20;1.00;;;;;;5106592;28;20442;-57
2022/05/18 11:39:48;;;;;;;8.43;7.73;;;26.60;1.00;;;;;;5099082;28;20505;-57
2022/05/18 11:42:53;;;;;;;8.83;8.23;;;26.70;1.00;;;;;;5101214;28;20428;-59
2022/05/18 11:45:47;;;;;;;8.63;7.77;;;27.50;1.00;;;;;;5097078;28;20464;-58
2022/05/18 11:48:21;;;;;;;8.80;7.90;;;28.50;1.00;;;;;;5093000;28;20419;-59
2022/05/18 11:50:46;;;;;;;10.67;7.73;;;28.40;1.00;;;;;;5095850;28;20931;-59
2022/05/18 11:53:50;;;;;;;10.90;7.27;;;28.10;1.00;;;;;;5094524;28;20445;-59
2022/05/18 11:56:52;;;;;;;7.97;7.27;;;27.90;1.00;;;;;;5084083;28;20650;-59
2022/05/18 11:59:56;;;;;;;9.17;7.50;;;27.50;1.00;;;;;;5096099;28;20406;-58
2022/05/18 12:02:42;;;;;;;8.73;7.93;;;27.20;1.00;;;;;;5106533;28;20429;-59
2022/05/18 12:05:22;;;;;;;8.80;7.77;;;26.80;1.00;;;;;;5100237;28;20415;-58
2022/05/18 12:08:27;;;;;;;9.37;8.00;;;26.80;1.00;;;;;;5095642;28;20455;-59
2022/05/18 12:11:13;;;;;;;9.23;8.20;;;26.80;1.00;;;;;;5094758;28;20452;-58
2022/05/18 12:13:53;;;;;;;12.40;8.87;;;26.70;1.00;;;;;;5097473;28;20494;-58
2022/05/18 12:16:19;;;;;;;8.30;7.60;;;26.60;1.00;;;;;;5100149;28;20490;-60
2022/05/18 12:18:48;;;;;;;9.40;8.60;;;26.70;1.00;;;;;;5102177;28;21189;-60
2022/05/18 12:21:34;;;;;;;9.77;8.37;;;26.90;1.00;;;;;;5090956;28;20261;-58
2022/05/18 12:24:03;;;;;;;9.70;8.80;;;27.10;1.00;;;;;;5098596;28;20542;-61
2022/05/18 12:26:34;;;;;;;10.03;9.13;;;27.20;1.00;;;;;;5092693;28;20452;-59
2022/05/18 12:29:01;;;;;;;9.50;8.70;;;27.30;1.00;;;;;;5109382;28;20455;-59
2022/05/18 12:31:27;;;;;;;8.67;7.97;;;27.40;1.00;;;;;;5110726;28;20466;-60
2022/05/18 12:34:15;;;;;;;8.93;8.17;;;27.20;1.00;;;;;;5102156;28;20463;-59
2022/05/18 12:36:54;;;;;;;10.33;8.47;;;27.10;1.00;;;;;;5084795;28;20435;-59
2022/05/18 12:39:50;;;;;;;9.50;8.40;;;27.00;1.00;;;;;;5080551;28;20926;-59
2022/05/18 12:42:22;;;;;;;9.17;8.37;;;26.90;1.00;;;;;;5091283;28;20502;-58
2022/05/18 12:44:54;;;;;;;9.10;8.27;;;27.00;1.00;;;;;;5110349;28;20431;-59
2022/05/18 12:47:29;;;;;;;8.17;7.47;;;27.10;1.00;;;;;;5101804;28;20498;-59
2022/05/18 12:49:59;;;;;;;9.10;8.20;;;27.20;1.00;;;;;;5079285;28;20450;-59
2022/05/18 12:52:37;;;;;;;9.07;8.03;;;27.10;1.00;;;;;;5100912;28;20410;-59
2022/05/18 12:55:36;;;;;;;11.17;8.50;;;27.20;1.00;;;;;;5092790;28;20436;-60
2022/05/18 12:58:10;;;;;;;8.90;8.20;;;27.10;1.00;;;;;;5060791;28;20478;-60
2022/05/18 13:01:11;;;;;;;8.57;7.97;;;27.00;1.00;;;;;;5100069;28;20522;-60
2022/05/18 13:04:05;;;;;;;8.37;7.63;;;26.80;1.00;;;;;;5110133;28;20407;-60
2022/05/18 13:06:31;;;;;;;8.40;7.70;;;26.90;1.00;;;;;;5090002;28;21095;-59
2022/05/18 13:09:21;;;;;;;10.70;9.73;;;26.90;1.00;;;;;;5090023;28;20449;-59
2022/05/18 13:12:18;;;;;;;12.10;8.40;;;26.90;1.00;;;;;;5090241;28;20193;-59
2022/05/18 13:14:58;;;;;;;9.50;8.60;;;26.80;1.00;;;;;;5096495;28;20989;-59
2022/05/18 13:18:04;;;;;;;10.23;8.10;;;26.80;1.00;;;;;;5108298;28;20429;-59
2022/05/18 13:20:51;;;;;;;9.90;7.43;;;26.80;1.00;;;;;;5093767;28;20438;-58
2022/05/18 13:23:29;;;;;;;8.73;7.83;;;26.90;1.00;;;;;;5104814;28;21048;-60
2022/05/18 13:26:30;;;;;;;12.20;7.90;;;26.90;1.00;;;;;;5107016;28;20418;-58
2022/05/18 13:29:05;;;;;;;9.00;8.20;;;26.80;1.00;;;;;;5091324;28;20423;-58
2022/05/18 13:31:32;;;;;;;8.50;7.53;;;26.70;1.00;;;;;;5093496;28;20535;-59
2022/05/18 13:34:07;;;;;;;7.97;6.93;;;26.60;1.00;;;;;;5089425;28;20870;-59